SBPJ

Details ICAO SBPJ (PMW)
Name Palmas, Brigadeiro L Rodrigues
Region Brazil
Timezone America/Araguaina (UTC-3.0)
Plans Departing 80
Arriving 71
Stats Elevation 772 ft / 235 m (AMSL)
Location -10.291500° -48.357000°
Runways 1
Magnetic Variation 21.316° W
Sunrise 2018-10-15 08:50:40 UTC / 2018-10-15 05:50:40 Local
Sunset 2018-10-15 21:10:01 UTC / 2018-10-15 18:10:01 Local
Advertisement - Login to hide

Runways

ID Width Length Bearing (true/mag) Surface Threshold Overrun Markings Lighting
14 148 ft / 45 m 8,190 ft / 2,496 m 123.64° / 144.96° ASPHALT 0 ft / 0 m 220 ft / 67 m PREC-APP EDGE THRESHOLD REIL-OMNI
32 148 ft / 45 m 8,190 ft / 2,496 m 303.64° / 324.96° ASPHALT 0 ft / 0 m 200 ft / 61 m PREC-APP EDGE THRESHOLD REIL-OMNI

Map

Weather


0- 5 10 15 20 25 30 35+ Temperature / °C

Clouds and Precipitation
Forecast for 2018-10-16 00:00 UTC. Updated 2 hours ago

Ground ~20,000 ft ~40,000 ft Winds

METAR

Not found

TAF

TAF SBPJ 151400Z 1518/1606 36005KT 7000 SCT030 TX32/1518Z TN25/1605Z PROB30 1519/1524 TS SCT030 FEW035CB BECMG 1600/1602 01005KT FEW030 RMK PDE

Frequencies

Tower 118.00 MHz Palmas Tower
Approach 119.00 MHz Palmas Approach
Warning: Do not use this data for real-world aviation or navigation. No guarantee of current accuracy is given.